Time;durP1;ratioP1;P1;durP2;ratioP2;P2;SDS_P1;SDS_P2;PMS_P1;PMS_P2;Temp;Humidity;BMP_temperature;BMP_pressure;BME280_temperature;BME280_humidity;BME280_pressure;Samples;Min_cycle;Max_cycle;Signal;HPM_P1;HPM_P2
2022/08/30 00:02:35;;;;;;;0.37;0.37;;;;;;;;;;5100562;27;20212;-58
2022/08/30 00:05:24;;;;;;;0.30;0.30;;;;;;;;;;5146414;27;20571;-59
2022/08/30 00:08:12;;;;;;;0.40;0.40;;;;;;;;;;5131276;27;20241;-58
2022/08/30 00:10:59;;;;;;;0.40;0.40;;;;;;;;;;5140699;27;20258;-59
2022/08/30 00:13:46;;;;;;;0.37;0.37;;;;;;;;;;5135949;27;20205;-59
2022/08/30 00:16:33;;;;;;;0.30;0.30;;;;;;;;;;5133236;27;20686;-59
2022/08/30 00:19:20;;;;;;;0.40;0.30;;;;;;;;;;5129703;27;20267;-59
2022/08/30 00:22:08;;;;;;;0.37;0.37;;;;;;;;;;5139903;27;20205;-59
2022/08/30 00:24:55;;;;;;;0.30;0.30;;;;;;;;;;5136400;27;20557;-59
2022/08/30 00:27:44;;;;;;;0.40;0.40;;;;;;;;;;5127788;27;20202;-59
2022/08/30 00:30:31;;;;;;;0.30;0.30;;;;;;;;;;5130549;27;20313;-59
2022/08/30 00:33:18;;;;;;;0.50;0.50;;;;;;;;;;5135394;27;20213;-59
2022/08/30 00:36:05;;;;;;;0.50;0.50;;;;;;;;;;5134132;27;20227;-59
2022/08/30 00:38:53;;;;;;;0.40;0.40;;;;;;;;;;5130727;27;20243;-59
2022/08/30 00:41:40;;;;;;;0.47;0.47;;;;;;;;;;5137369;27;20695;-59
2022/08/30 00:44:27;;;;;;;0.40;0.40;;;;;;;;;;5136073;27;20203;-59
2022/08/30 00:47:14;;;;;;;0.83;0.63;;;;;;;;;;5128476;27;20212;-59
2022/08/30 00:50:02;;;;;;;0.50;0.40;;;;;;;;;;5134373;27;20573;-59
2022/08/30 00:52:53;;;;;;;0.40;0.40;;;;;;;;;;5138049;27;20202;-58
2022/08/30 00:55:43;;;;;;;0.40;0.40;;;;;;;;;;5131252;27;20203;-58
2022/08/30 00:58:33;;;;;;;0.27;0.27;;;;;;;;;;5131661;27;20558;-59
2022/08/30 01:01:20;;;;;;;0.50;0.50;;;;;;;;;;5129209;27;20198;-62
2022/08/30 01:04:08;;;;;;;0.60;0.60;;;;;;;;;;5129528;27;20234;-62
2022/08/30 01:06:56;;;;;;;0.40;0.40;;;;;;;;;;5133546;27;20318;-62
2022/08/30 01:09:43;;;;;;;0.40;0.40;;;;;;;;;;5133772;27;20205;-62
2022/08/30 01:12:32;;;;;;;0.37;0.37;;;;;;;;;;5132814;27;20564;-62
2022/08/30 01:15:19;;;;;;;0.30;0.30;;;;;;;;;;5136733;27;20279;-62
2022/08/30 01:18:10;;;;;;;0.40;0.40;;;;;;;;;;5135456;27;20294;-62
2022/08/30 01:21:03;;;;;;;0.40;0.40;;;;;;;;;;5136189;27;20676;-62
2022/08/30 01:23:53;;;;;;;0.40;0.40;;;;;;;;;;5135097;27;20669;-62
2022/08/30 01:26:41;;;;;;;0.30;0.30;;;;;;;;;;5134071;27;20294;-62
2022/08/30 01:29:28;;;;;;;0.40;0.40;;;;;;;;;;5131088;27;20197;-62
2022/08/30 01:32:17;;;;;;;0.20;0.20;;;;;;;;;;5141217;27;20208;-62
2022/08/30 01:35:05;;;;;;;0.30;0.30;;;;;;;;;;5137068;27;20205;-62
2022/08/30 01:37:52;;;;;;;0.40;0.40;;;;;;;;;;5138006;27;20692;-63
2022/08/30 01:40:40;;;;;;;0.73;0.40;;;;;;;;;;5128713;27;20206;-62
2022/08/30 01:43:27;;;;;;;0.43;0.43;;;;;;;;;;5137390;27;20255;-62
2022/08/30 01:46:16;;;;;;;0.30;0.30;;;;;;;;;;5126825;27;20215;-63
2022/08/30 01:49:05;;;;;;;1.80;0.20;;;;;;;;;;5128876;27;20197;-62
2022/08/30 01:51:52;;;;;;;0.40;0.40;;;;;;;;;;5137353;27;20614;-62
2022/08/30 01:54:42;;;;;;;0.30;0.30;;;;;;;;;;5132075;27;20202;-62
2022/08/30 01:57:30;;;;;;;0.30;0.30;;;;;;;;;;5134399;27;20201;-62
2022/08/30 02:00:18;;;;;;;0.30;0.30;;;;;;;;;;5139098;27;20221;-62
2022/08/30 02:03:06;;;;;;;0.33;0.33;;;;;;;;;;5129824;27;20210;-62
2022/08/30 02:05:53;;;;;;;0.40;0.40;;;;;;;;;;5131325;27;20249;-62
2022/08/30 02:08:41;;;;;;;1.13;0.40;;;;;;;;;;5129463;28;20229;-62
2022/08/30 02:11:28;;;;;;;0.33;0.33;;;;;;;;;;5127778;27;20208;-62
2022/08/30 02:14:16;;;;;;;0.40;0.40;;;;;;;;;;5140102;27;20203;-62
2022/08/30 02:17:04;;;;;;;0.30;0.30;;;;;;;;;;5125147;27;20770;-62
2022/08/30 02:19:51;;;;;;;0.40;0.40;;;;;;;;;;5137198;27;20220;-62
2022/08/30 02:22:38;;;;;;;0.30;0.30;;;;;;;;;;5129023;28;20202;-62
2022/08/30 02:25:25;;;;;;;0.40;0.40;;;;;;;;;;5131225;27;21002;-62
2022/08/30 02:28:14;;;;;;;0.40;0.40;;;;;;;;;;5128604;27;20283;-62
2022/08/30 02:31:02;;;;;;;0.23;0.23;;;;;;;;;;5138579;27;20216;-62
2022/08/30 02:33:51;;;;;;;0.53;0.40;;;;;;;;;;5131934;27;20213;-62
2022/08/30 02:36:39;;;;;;;0.57;0.57;;;;;;;;;;5143363;27;20202;-62
2022/08/30 02:39:26;;;;;;;0.30;0.30;;;;;;;;;;5129331;28;20226;-62
2022/08/30 02:42:13;;;;;;;0.30;0.30;;;;;;;;;;5128268;28;20309;-62
2022/08/30 02:45:00;;;;;;;0.30;0.30;;;;;;;;;;5132678;27;20212;-62
2022/08/30 02:47:49;;;;;;;0.73;0.50;;;;;;;;;;5141367;27;20693;-62
2022/08/30 02:50:39;;;;;;;1.03;0.30;;;;;;;;;;5131007;27;20276;-62
2022/08/30 02:53:26;;;;;;;0.20;0.20;;;;;;;;;;5137447;27;20277;-62
2022/08/30 02:56:14;;;;;;;0.40;0.40;;;;;;;;;;5133557;27;20254;-62
2022/08/30 02:59:01;;;;;;;0.30;0.30;;;;;;;;;;5134682;27;20356;-62
2022/08/30 03:01:48;;;;;;;0.37;0.37;;;;;;;;;;5133082;27;20214;-62
2022/08/30 03:04:37;;;;;;;0.40;0.40;;;;;;;;;;5140396;27;20193;-62
2022/08/30 03:07:24;;;;;;;0.20;0.20;;;;;;;;;;5139285;27;20238;-62
2022/08/30 03:10:11;;;;;;;0.20;0.20;;;;;;;;;;5136857;27;20272;-62
2022/08/30 03:12:59;;;;;;;1.13;0.40;;;;;;;;;;5136958;27;20668;-62
2022/08/30 03:15:49;;;;;;;0.60;0.50;;;;;;;;;;5135070;27;20207;-62
2022/08/30 03:18:36;;;;;;;0.73;0.40;;;;;;;;;;5137870;27;20212;-62
2022/08/30 03:21:24;;;;;;;0.30;0.30;;;;;;;;;;5132209;27;20212;-62
2022/08/30 03:24:12;;;;;;;0.40;0.40;;;;;;;;;;5140859;27;20212;-62
2022/08/30 03:26:59;;;;;;;0.47;0.47;;;;;;;;;;5136161;27;20208;-62
2022/08/30 03:29:46;;;;;;;0.40;0.30;;;;;;;;;;5130895;27;20234;-62
2022/08/30 03:32:33;;;;;;;0.30;0.30;;;;;;;;;;5130056;27;20253;-62
2022/08/30 03:35:20;;;;;;;0.50;0.50;;;;;;;;;;5132246;27;20206;-62
2022/08/30 03:38:08;;;;;;;0.40;0.40;;;;;;;;;;5132624;27;20286;-62
2022/08/30 03:40:55;;;;;;;0.30;0.30;;;;;;;;;;5140749;27;20643;-62
2022/08/30 03:43:42;;;;;;;0.30;0.30;;;;;;;;;;5135395;27;20208;-62
2022/08/30 03:46:30;;;;;;;0.33;0.33;;;;;;;;;;5133812;27;20326;-62
2022/08/30 03:49:17;;;;;;;0.40;0.40;;;;;;;;;;5136245;27;20208;-62
2022/08/30 03:52:05;;;;;;;0.27;0.27;;;;;;;;;;5135146;27;20212;-62
2022/08/30 03:54:53;;;;;;;0.40;0.40;;;;;;;;;;5132529;27;20278;-62
2022/08/30 03:57:41;;;;;;;0.40;0.37;;;;;;;;;;5131592;27;20291;-62
2022/08/30 04:00:28;;;;;;;0.30;0.30;;;;;;;;;;5130370;27;20330;-62
2022/08/30 04:03:17;;;;;;;0.30;0.30;;;;;;;;;;5141005;27;20212;-62
2022/08/30 04:06:04;;;;;;;0.30;0.30;;;;;;;;;;5132871;27;20217;-62
2022/08/30 04:08:51;;;;;;;0.33;0.33;;;;;;;;;;5140409;27;20237;-62
2022/08/30 04:11:40;;;;;;;1.63;0.40;;;;;;;;;;5133679;27;20204;-62
2022/08/30 04:14:27;;;;;;;0.87;0.37;;;;;;;;;;5131128;27;20254;-62
2022/08/30 04:17:15;;;;;;;0.40;0.40;;;;;;;;;;5133794;27;20298;-62
2022/08/30 04:20:02;;;;;;;0.50;0.50;;;;;;;;;;5143588;27;20261;-62
2022/08/30 04:22:49;;;;;;;0.30;0.30;;;;;;;;;;5134078;27;20285;-62
2022/08/30 04:25:37;;;;;;;0.40;0.40;;;;;;;;;;5141957;27;20205;-62
2022/08/30 04:28:26;;;;;;;0.40;0.40;;;;;;;;;;5132374;27;20208;-62
2022/08/30 04:31:15;;;;;;;0.30;0.30;;;;;;;;;;5133077;27;20295;-62
2022/08/30 04:34:02;;;;;;;0.50;0.37;;;;;;;;;;5131127;27;20233;-62
2022/08/30 04:36:49;;;;;;;0.20;0.20;;;;;;;;;;5139628;27;20624;-62
2022/08/30 04:39:36;;;;;;;0.30;0.30;;;;;;;;;;5133591;27;20225;-65
2022/08/30 04:42:23;;;;;;;0.40;0.40;;;;;;;;;;5140069;27;20498;-62
2022/08/30 04:45:15;;;;;;;0.30;0.30;;;;;;;;;;5133268;27;20202;-62
2022/08/30 04:48:02;;;;;;;0.40;0.40;;;;;;;;;;5134183;27;20207;-62
2022/08/30 04:50:49;;;;;;;0.37;0.37;;;;;;;;;;5137543;27;20238;-62
2022/08/30 04:53:37;;;;;;;0.87;0.40;;;;;;;;;;5134587;27;20208;-62
2022/08/30 04:56:25;;;;;;;0.33;0.33;;;;;;;;;;5130848;27;20294;-62
2022/08/30 04:59:12;;;;;;;0.37;0.30;;;;;;;;;;5136392;27;20220;-62
2022/08/30 05:02:01;;;;;;;0.20;0.20;;;;;;;;;;5137333;27;20552;-62
2022/08/30 05:07:49;;;;;;;0.40;0.40;;;;;;;;;;5141646;27;20485;-62
2022/08/30 05:10:39;;;;;;;0.27;0.27;;;;;;;;;;5134138;27;20250;-62
2022/08/30 05:13:25;;;;;;;0.40;0.40;;;;;;;;;;5139671;27;20258;-62
2022/08/30 05:16:16;;;;;;;0.13;0.13;;;;;;;;;;5129342;27;20203;-62
2022/08/30 05:19:06;;;;;;;0.43;0.23;;;;;;;;;;5138625;27;20322;-62
2022/08/30 05:21:53;;;;;;;0.40;0.40;;;;;;;;;;5128260;27;20206;-63
2022/08/30 05:24:40;;;;;;;0.40;0.40;;;;;;;;;;5138296;27;20667;-62
2022/08/30 05:27:27;;;;;;;0.40;0.40;;;;;;;;;;5131303;27;20198;-62
2022/08/30 05:30:15;;;;;;;0.40;0.40;;;;;;;;;;5128271;27;20279;-62
2022/08/30 05:33:03;;;;;;;0.17;0.17;;;;;;;;;;5129179;27;20206;-63
2022/08/30 05:35:51;;;;;;;0.27;0.27;;;;;;;;;;5135633;27;20199;-62
2022/08/30 05:38:38;;;;;;;0.30;0.30;;;;;;;;;;5128360;27;20240;-62
2022/08/30 05:41:26;;;;;;;0.40;0.40;;;;;;;;;;5135895;27;20684;-62
2022/08/30 05:44:12;;;;;;;0.30;0.30;;;;;;;;;;5129934;27;20221;-62
2022/08/30 05:46:59;;;;;;;0.50;0.50;;;;;;;;;;5128318;27;20430;-62
2022/08/30 05:49:47;;;;;;;0.87;0.60;;;;;;;;;;5132050;27;20209;-62
2022/08/30 05:52:36;;;;;;;0.73;0.73;;;;;;;;;;5129092;27;20210;-62
2022/08/30 05:55:23;;;;;;;0.30;0.30;;;;;;;;;;5130910;27;20214;-62
2022/08/30 05:58:10;;;;;;;0.50;0.50;;;;;;;;;;5130082;27;20212;-62
2022/08/30 06:00:57;;;;;;;0.60;0.60;;;;;;;;;;5130156;27;20227;-62
2022/08/30 06:03:44;;;;;;;0.50;0.50;;;;;;;;;;5133880;27;20211;-62
2022/08/30 06:06:34;;;;;;;0.70;0.70;;;;;;;;;;5130905;27;20242;-62
2022/08/30 06:09:22;;;;;;;0.50;0.50;;;;;;;;;;5130687;27;20234;-63
2022/08/30 06:12:09;;;;;;;0.50;0.50;;;;;;;;;;5128486;27;20219;-62
2022/08/30 06:14:56;;;;;;;0.50;0.50;;;;;;;;;;5135635;27;20580;-62
2022/08/30 06:17:43;;;;;;;0.85;0.70;;;;;;;;;;5132538;27;20228;-62
2022/08/30 06:20:31;;;;;;;0.55;0.55;;;;;;;;;;5132161;27;20228;-62
2022/08/30 06:23:18;;;;;;;0.50;0.50;;;;;;;;;;5135965;27;20669;-62
2022/08/30 06:26:07;;;;;;;0.60;0.60;;;;;;;;;;5127129;28;20212;-62
2022/08/30 06:28:54;;;;;;;0.70;0.70;;;;;;;;;;5137027;27;20204;-62
2022/08/30 06:31:41;;;;;;;0.70;0.70;;;;;;;;;;5134384;27;20220;-63
2022/08/30 06:34:29;;;;;;;0.60;0.60;;;;;;;;;;5137217;27;20197;-62
2022/08/30 06:37:17;;;;;;;0.70;0.70;;;;;;;;;;5130149;27;20201;-62
2022/08/30 06:40:05;;;;;;;1.10;0.80;;;;;;;;;;5137191;27;20325;-62
2022/08/30 06:42:53;;;;;;;1.45;0.77;;;;;;;;;;5129169;27;20334;-63
2022/08/30 06:45:40;;;;;;;0.88;0.80;;;;;;;;;;5135472;27;20212;-62
2022/08/30 06:48:27;;;;;;;0.60;0.60;;;;;;;;;;5132661;27;20569;-62
2022/08/30 06:51:14;;;;;;;0.50;0.50;;;;;;;;;;5137196;27;20215;-62
2022/08/30 06:54:02;;;;;;;0.70;0.70;;;;;;;;;;5135068;27;20292;-62
2022/08/30 06:56:49;;;;;;;0.70;0.70;;;;;;;;;;5136177;27;20209;-62
2022/08/30 06:59:37;;;;;;;0.52;0.52;;;;;;;;;;5133374;27;20283;-62
2022/08/30 07:02:25;;;;;;;0.70;0.70;;;;;;;;;;5138043;27;20725;-62
2022/08/30 07:05:12;;;;;;;0.70;0.70;;;;;;;;;;5128665;27;20208;-62
2022/08/30 07:07:59;;;;;;;0.77;0.77;;;;;;;;;;5138310;27;20347;-62
2022/08/30 07:10:46;;;;;;;0.80;0.80;;;;;;;;;;5130246;27;20334;-62
2022/08/30 07:13:34;;;;;;;0.77;0.77;;;;;;;;;;5132481;27;20209;-62
2022/08/30 07:16:22;;;;;;;0.95;0.95;;;;;;;;;;5134167;27;20276;-62
2022/08/30 07:19:09;;;;;;;0.85;0.85;;;;;;;;;;5141899;27;20587;-62
2022/08/30 07:21:56;;;;;;;0.80;0.80;;;;;;;;;;5132232;27;20323;-62
2022/08/30 07:24:43;;;;;;;1.38;0.75;;;;;;;;;;5132106;27;20212;-62
2022/08/30 07:27:31;;;;;;;0.70;0.70;;;;;;;;;;5133195;27;20208;-60
2022/08/30 07:30:18;;;;;;;0.80;0.80;;;;;;;;;;5141091;27;20266;-60
2022/08/30 07:33:07;;;;;;;1.52;0.65;;;;;;;;;;5138608;27;20287;-61
2022/08/30 07:35:54;;;;;;;0.90;0.90;;;;;;;;;;5129535;27;20212;-60
2022/08/30 07:38:41;;;;;;;1.20;1.02;;;;;;;;;;5132748;27;20197;-61
2022/08/30 07:41:32;;;;;;;0.88;0.88;;;;;;;;;;5139515;27;20233;-61
2022/08/30 07:44:19;;;;;;;1.13;1.00;;;;;;;;;;5134823;27;20201;-61
2022/08/30 07:47:06;;;;;;;2.75;1.25;;;;;;;;;;5132828;27;20261;-61
2022/08/30 07:49:55;;;;;;;2.58;1.13;;;;;;;;;;5134464;27;20220;-61
2022/08/30 07:52:42;;;;;;;2.78;1.45;;;;;;;;;;5137510;27;20779;-61
2022/08/30 07:55:29;;;;;;;2.97;1.10;;;;;;;;;;5131705;27;20259;-61
2022/08/30 07:58:15;;;;;;;2.58;1.70;;;;;;;;;;5136172;27;20784;-61
2022/08/30 08:01:03;;;;;;;3.30;1.55;;;;;;;;;;5130911;27;20236;-61
2022/08/30 08:03:51;;;;;;;7.22;2.33;;;;;;;;;;5130204;27;20236;-60
2022/08/30 08:06:40;;;;;;;3.75;2.10;;;;;;;;;;5138012;27;20266;-61
2022/08/30 08:09:27;;;;;;;3.72;2.08;;;;;;;;;;5127963;27;20197;-61
2022/08/30 08:12:13;;;;;;;4.97;2.35;;;;;;;;;;5130376;27;20212;-61
2022/08/30 08:15:00;;;;;;;5.75;2.50;;;;;;;;;;5127880;27;20621;-61
2022/08/30 08:17:47;;;;;;;7.68;2.88;;;;;;;;;;5137053;27;20676;-61
2022/08/30 08:20:34;;;;;;;8.65;2.50;;;;;;;;;;5131073;27;20637;-60
2022/08/30 08:23:23;;;;;;;5.38;2.63;;;;;;;;;;5134752;27;20205;-60
2022/08/30 08:26:10;;;;;;;7.05;3.00;;;;;;;;;;5133945;27;20292;-60
2022/08/30 08:28:57;;;;;;;5.70;1.98;;;;;;;;;;5141218;27;20197;-60
2022/08/30 08:31:45;;;;;;;4.43;2.30;;;;;;;;;;5131137;27;20205;-60
2022/08/30 08:34:32;;;;;;;5.72;2.22;;;;;;;;;;5143091;27;20215;-60
2022/08/30 08:37:20;;;;;;;3.95;2.20;;;;;;;;;;5129721;27;20205;-60
2022/08/30 08:40:14;;;;;;;3.88;2.13;;;;;;;;;;5140367;27;20236;-60
2022/08/30 08:43:05;;;;;;;7.35;2.38;;;;;;;;;;5129152;27;20290;-60
2022/08/30 08:45:57;;;;;;;4.75;2.17;;;;;;;;;;5131602;27;20222;-60
2022/08/30 08:48:48;;;;;;;6.07;2.22;;;;;;;;;;5134148;27;20224;-60
2022/08/30 08:54:48;;;;;;;5.90;2.13;;;;;;;;;;5131182;27;20614;-63
2022/08/30 08:57:37;;;;;;;4.75;2.25;;;;;;;;;;5129894;27;20209;-62
2022/08/30 09:00:24;;;;;;;2.78;1.73;;;;;;;;;;5129350;27;20229;-62
2022/08/30 09:03:15;;;;;;;5.40;2.35;;;;;;;;;;5131534;27;20216;-62
2022/08/30 09:06:06;;;;;;;4.57;2.35;;;;;;;;;;5136947;27;20229;-61
2022/08/30 09:08:54;;;;;;;5.40;2.15;;;;;;;;;;5131791;27;20233;-61
2022/08/30 09:11:42;;;;;;;4.75;1.98;;;;;;;;;;5129243;27;20257;-61
2022/08/30 09:14:34;;;;;;;2.85;1.70;;;;;;;;;;5131053;27;20205;-61
2022/08/30 09:17:22;;;;;;;3.67;1.80;;;;;;;;;;5139028;27;20209;-62
2022/08/30 09:20:09;;;;;;;2.72;1.80;;;;;;;;;;5130781;27;20205;-61
2022/08/30 09:22:56;;;;;;;4.13;2.10;;;;;;;;;;5136678;27;20212;-61
2022/08/30 09:25:51;;;;;;;5.00;2.05;;;;;;;;;;5127869;27;20688;-61
2022/08/30 09:28:45;;;;;;;5.25;2.20;;;;;;;;;;5141974;27;20288;-61
2022/08/30 09:31:47;;;;;;;3.78;2.10;;;;;;;;;;5130901;27;20201;-61
2022/08/30 09:34:34;;;;;;;4.63;2.25;;;;;;;;;;5142802;27;20213;-61
2022/08/30 09:37:28;;;;;;;5.57;2.38;;;;;;;;;;5128358;27;20262;-62
2022/08/30 09:40:22;;;;;;;2.83;1.83;;;;;;;;;;5137181;27;20209;-61
2022/08/30 09:43:19;;;;;;;2.83;2.22;;;;;;;;;;5136518;27;20197;-61
2022/08/30 09:46:10;;;;;;;3.50;2.13;;;;;;;;;;5138036;27;20235;-61
2022/08/30 09:48:58;;;;;;;4.75;2.22;;;;;;;;;;5128727;27;20608;-61
2022/08/30 09:51:51;;;;;;;4.03;2.10;;;;;;;;;;5130208;27;20692;-61
2022/08/30 09:54:45;;;;;;;4.78;2.50;;;;;;;;;;5124876;27;20221;-61
2022/08/30 09:57:39;;;;;;;4.20;2.10;;;;;;;;;;5135364;27;20204;-61
2022/08/30 10:00:30;;;;;;;4.18;2.00;;;;;;;;;;5129537;28;20616;-61
2022/08/30 10:03:24;;;;;;;6.55;2.10;;;;;;;;;;5132562;27;20207;-61
2022/08/30 10:06:22;;;;;;;5.72;2.45;;;;;;;;;;5142917;27;20213;-62
2022/08/30 10:09:22;;;;;;;5.93;2.42;;;;;;;;;;5132744;27;20205;-62
2022/08/30 10:12:16;;;;;;;5.70;2.67;;;;;;;;;;5140391;27;20201;-61
2022/08/30 10:15:13;;;;;;;6.15;2.97;;;;;;;;;;5134420;27;20208;-61
2022/08/30 10:18:10;;;;;;;5.00;2.90;;;;;;;;;;5132019;27;20197;-61
2022/08/30 10:21:06;;;;;;;5.05;2.63;;;;;;;;;;5141637;27;20382;-61
2022/08/30 10:24:00;;;;;;;7.45;2.97;;;;;;;;;;5140011;27;20201;-61
2022/08/30 10:26:52;;;;;;;5.75;2.80;;;;;;;;;;5134120;27;20201;-62
2022/08/30 10:29:44;;;;;;;4.18;2.25;;;;;;;;;;5135165;27;20355;-62
2022/08/30 10:32:36;;;;;;;6.93;2.53;;;;;;;;;;5133640;27;20199;-61
2022/08/30 10:35:26;;;;;;;7.78;3.10;;;;;;;;;;5138086;27;20204;-61
2022/08/30 10:38:19;;;;;;;10.00;2.92;;;;;;;;;;5140225;27;20916;-61
2022/08/30 10:41:17;;;;;;;7.78;3.03;;;;;;;;;;5136604;27;20570;-61
2022/08/30 10:44:11;;;;;;;6.97;2.70;;;;;;;;;;5136018;27;20545;-61
2022/08/30 10:47:06;;;;;;;6.20;2.70;;;;;;;;;;5136688;27;20213;-61
2022/08/30 10:50:01;;;;;;;3.90;2.22;;;;;;;;;;5132777;27;20294;-61
2022/08/30 10:52:54;;;;;;;6.88;3.17;;;;;;;;;;5136400;27;20249;-61
2022/08/30 10:55:46;;;;;;;4.93;2.67;;;;;;;;;;5142060;27;20207;-61
2022/08/30 10:58:38;;;;;;;6.82;2.92;;;;;;;;;;5139507;27;20208;-61
2022/08/30 11:01:45;;;;;;;6.82;2.70;;;;;;;;;;5143901;27;20736;-61
2022/08/30 11:04:56;;;;;;;7.85;3.40;;;;;;;;;;5139520;27;20222;-61
2022/08/30 11:07:52;;;;;;;5.97;3.00;;;;;;;;;;5128897;27;20232;-61
2022/08/30 11:10:49;;;;;;;7.45;3.28;;;;;;;;;;5129254;27;20597;-61
2022/08/30 11:13:39;;;;;;;9.52;3.10;;;;;;;;;;5129720;27;20294;-61
2022/08/30 11:16:35;;;;;;;8.45;3.53;;;;;;;;;;5131617;27;20197;-61
2022/08/30 11:19:25;;;;;;;5.38;3.05;;;;;;;;;;5131028;27;20197;-61
2022/08/30 11:22:14;;;;;;;6.18;2.80;;;;;;;;;;5140930;27;20221;-62
2022/08/30 11:25:09;;;;;;;10.00;3.40;;;;;;;;;;5132016;27;20203;-62
2022/08/30 11:27:57;;;;;;;6.88;3.33;;;;;;;;;;5137544;27;20204;-61
2022/08/30 11:31:03;;;;;;;7.68;3.55;;;;;;;;;;5132311;27;20618;-61
2022/08/30 11:33:51;;;;;;;8.25;3.47;;;;;;;;;;5135021;27;20212;-62
2022/08/30 11:37:06;;;;;;;8.23;3.20;;;;;;;;;;5136866;27;20228;-62
2022/08/30 11:39:56;;;;;;;8.95;3.45;;;;;;;;;;5135133;27;20305;-62
2022/08/30 11:42:45;;;;;;;8.57;3.30;;;;;;;;;;5134364;27;20236;-61
2022/08/30 11:45:50;;;;;;;11.57;3.60;;;;;;;;;;5139781;27;20205;-61
2022/08/30 11:48:50;;;;;;;10.13;3.35;;;;;;;;;;5140960;27;20212;-61
2022/08/30 11:51:54;;;;;;;6.55;3.28;;;;;;;;;;5134351;27;20271;-62
2022/08/30 11:54:50;;;;;;;7.38;2.95;;;;;;;;;;5131046;27;20292;-61
2022/08/30 11:57:47;;;;;;;7.70;3.10;;;;;;;;;;5136332;27;20212;-62
2022/08/30 12:00:38;;;;;;;6.00;3.17;;;;;;;;;;5129309;27;20201;-61
2022/08/30 12:03:31;;;;;;;7.50;3.15;;;;;;;;;;5138329;27;20791;-61
2022/08/30 12:06:55;;;;;;;8.32;3.42;;;;;;;;;;5131275;27;20299;-61
2022/08/30 12:10:05;;;;;;;6.18;3.05;;;;;;;;;;5136377;27;20208;-62
2022/08/30 12:12:54;;;;;;;5.03;2.65;;;;;;;;;;5137544;27;20201;-61
2022/08/30 12:15:57;;;;;;;6.63;2.78;;;;;;;;;;5139255;27;20612;-61
2022/08/30 12:18:47;;;;;;;6.75;2.92;;;;;;;;;;5131714;27;20205;-61
2022/08/30 12:21:36;;;;;;;5.95;3.03;;;;;;;;;;5139411;27;20225;-62
2022/08/30 12:24:28;;;;;;;7.25;3.00;;;;;;;;;;5129942;27;20204;-62
2022/08/30 12:27:26;;;;;;;7.45;3.13;;;;;;;;;;5140351;27;20233;-61
2022/08/30 12:30:13;;;;;;;6.70;2.80;;;;;;;;;;5131910;27;20205;-62
2022/08/30 12:33:00;;;;;;;4.88;2.65;;;;;;;;;;5137772;27;20290;-63
2022/08/30 12:35:47;;;;;;;7.05;2.70;;;;;;;;;;5129394;27;20236;-61
2022/08/30 12:38:34;;;;;;;4.50;2.72;;;;;;;;;;5123849;27;20296;-61
2022/08/30 12:41:23;;;;;;;7.95;2.90;;;;;;;;;;5127619;27;20234;-61
2022/08/30 12:44:15;;;;;;;4.05;2.60;;;;;;;;;;5131189;27;20212;-61
2022/08/30 12:47:05;;;;;;;3.38;2.35;;;;;;;;;;5126029;27;20242;-62
2022/08/30 12:49:54;;;;;;;4.35;2.40;;;;;;;;;;5135249;27;20208;-62
2022/08/30 12:52:46;;;;;;;6.03;2.33;;;;;;;;;;5130432;27;20204;-62
2022/08/30 12:55:36;;;;;;;6.78;3.05;;;;;;;;;;5135406;27;20224;-61
2022/08/30 12:58:38;;;;;;;5.30;2.50;;;;;;;;;;5130824;27;20289;-61
2022/08/30 13:01:27;;;;;;;6.88;2.42;;;;;;;;;;5131352;27;20231;-61
2022/08/30 13:04:20;;;;;;;7.28;1.92;;;;;;;;;;5134686;27;20211;-61
2022/08/30 13:07:07;;;;;;;5.47;2.60;;;;;;;;;;5127086;27;20264;-61
2022/08/30 13:10:03;;;;;;;5.63;2.53;;;;;;;;;;5134234;27;20207;-61
2022/08/30 13:13:00;;;;;;;4.68;2.22;;;;;;;;;;5129263;27;20227;-63
2022/08/30 13:15:49;;;;;;;4.80;2.33;;;;;;;;;;5141935;27;20193;-62
2022/08/30 13:18:37;;;;;;;3.22;2.20;;;;;;;;;;5130354;27;20266;-61
2022/08/30 13:21:28;;;;;;;7.40;2.13;;;;;;;;;;5137051;27;20333;-61
2022/08/30 13:24:15;;;;;;;3.97;1.98;;;;;;;;;;5130155;27;20206;-63
2022/08/30 13:27:08;;;;;;;2.78;1.77;;;;;;;;;;5138255;27;20349;-62
2022/08/30 13:29:55;;;;;;;4.25;1.83;;;;;;;;;;5131341;27;20212;-62
2022/08/30 13:32:45;;;;;;;3.58;2.00;;;;;;;;;;5130892;27;20564;-61
2022/08/30 13:35:32;;;;;;;2.00;1.67;;;;;;;;;;5129903;27;20215;-61
2022/08/30 13:38:19;;;;;;;3.75;1.80;;;;;;;;;;5138306;27;20211;-62
2022/08/30 13:41:07;;;;;;;2.60;1.70;;;;;;;;;;5129734;27;20207;-61
2022/08/30 13:43:54;;;;;;;2.75;1.30;;;;;;;;;;5130480;27;20205;-62
2022/08/30 13:46:43;;;;;;;2.28;1.45;;;;;;;;;;5128561;27;20205;-62
2022/08/30 13:49:34;;;;;;;2.85;1.80;;;;;;;;;;5137523;27;20540;-61
2022/08/30 13:52:23;;;;;;;4.25;1.80;;;;;;;;;;5129697;27;20207;-61
2022/08/30 13:55:11;;;;;;;2.50;1.42;;;;;;;;;;5129745;27;20218;-62
2022/08/30 13:57:58;;;;;;;2.42;1.58;;;;;;;;;;5134990;27;20208;-61
2022/08/30 14:00:45;;;;;;;2.40;1.08;;;;;;;;;;5136075;27;20209;-61
2022/08/30 14:03:32;;;;;;;2.60;1.33;;;;;;;;;;5139582;27;20346;-61
2022/08/30 14:06:21;;;;;;;2.47;1.27;;;;;;;;;;5134029;27;20220;-61
2022/08/30 14:09:09;;;;;;;1.63;1.20;;;;;;;;;;5129188;28;20697;-61
2022/08/30 14:11:56;;;;;;;2.03;1.20;;;;;;;;;;5129389;27;20201;-62
2022/08/30 14:14:43;;;;;;;1.52;1.20;;;;;;;;;;5140283;27;20657;-61
2022/08/30 14:17:31;;;;;;;1.00;0.90;;;;;;;;;;5129313;28;20212;-61
2022/08/30 14:20:19;;;;;;;0.95;0.68;;;;;;;;;;5139954;27;20206;-61
2022/08/30 14:23:07;;;;;;;1.60;0.90;;;;;;;;;;5131283;27;20621;-61
2022/08/30 14:25:54;;;;;;;1.58;1.00;;;;;;;;;;5130630;27;20216;-62
2022/08/30 14:28:43;;;;;;;1.40;1.05;;;;;;;;;;5128877;27;20261;-61
2022/08/30 14:31:30;;;;;;;1.33;0.93;;;;;;;;;;5129535;27;20331;-61
2022/08/30 14:34:18;;;;;;;1.83;0.90;;;;;;;;;;5127411;27;20334;-61
2022/08/30 14:37:06;;;;;;;1.70;0.90;;;;;;;;;;5129602;27;20580;-61
2022/08/30 14:39:55;;;;;;;1.65;0.73;;;;;;;;;;5128466;28;20338;-61
2022/08/30 14:42:42;;;;;;;1.90;0.73;;;;;;;;;;5127931;27;20221;-61
2022/08/30 14:45:29;;;;;;;0.70;0.70;;;;;;;;;;5128494;28;20198;-61
2022/08/30 14:48:16;;;;;;;1.55;0.70;;;;;;;;;;5133307;27;20220;-61
2022/08/30 14:51:03;;;;;;;1.05;0.80;;;;;;;;;;5131414;27;20228;-61
2022/08/30 14:53:52;;;;;;;1.23;0.50;;;;;;;;;;5136215;27;20209;-61
2022/08/30 14:56:41;;;;;;;0.85;0.60;;;;;;;;;;5132752;27;20208;-61
2022/08/30 14:59:29;;;;;;;0.65;0.60;;;;;;;;;;5130770;27;20197;-62
2022/08/30 15:02:16;;;;;;;0.70;0.50;;;;;;;;;;5130443;27;20226;-59
2022/08/30 15:05:04;;;;;;;0.73;0.70;;;;;;;;;;5132475;27;20267;-59
2022/08/30 15:07:51;;;;;;;0.98;0.60;;;;;;;;;;5134378;27;20237;-60
2022/08/30 15:10:40;;;;;;;0.95;0.50;;;;;;;;;;5136158;27;20233;-59
2022/08/30 15:13:29;;;;;;;0.80;0.65;;;;;;;;;;5138810;27;20233;-59
2022/08/30 15:16:17;;;;;;;0.80;0.70;;;;;;;;;;5128430;27;20568;-59
2022/08/30 15:19:06;;;;;;;0.47;0.47;;;;;;;;;;5133396;27;20249;-59
2022/08/30 15:21:53;;;;;;;0.47;0.47;;;;;;;;;;5130952;27;20228;-59
2022/08/30 15:24:42;;;;;;;1.02;0.70;;;;;;;;;;5124452;27;20691;-59
2022/08/30 15:27:29;;;;;;;0.60;0.38;;;;;;;;;;5134714;27;20205;-59
2022/08/30 15:30:17;;;;;;;0.65;0.65;;;;;;;;;;5136363;27;20284;-59
2022/08/30 15:33:04;;;;;;;0.73;0.50;;;;;;;;;;5131587;27;20213;-58
2022/08/30 15:35:52;;;;;;;0.43;0.43;;;;;;;;;;5137964;27;20211;-58
2022/08/30 15:38:41;;;;;;;0.40;0.40;;;;;;;;;;5138104;27;20680;-59
2022/08/30 15:41:28;;;;;;;0.50;0.50;;;;;;;;;;5135966;27;20204;-59
2022/08/30 15:44:15;;;;;;;0.60;0.40;;;;;;;;;;5136238;27;20685;-59
2022/08/30 15:47:04;;;;;;;0.50;0.50;;;;;;;;;;5135767;27;20203;-59
2022/08/30 15:49:55;;;;;;;0.50;0.40;;;;;;;;;;5134964;27;20205;-59
2022/08/30 15:52:42;;;;;;;0.75;0.40;;;;;;;;;;5136556;27;20272;-58
2022/08/30 15:55:29;;;;;;;0.30;0.30;;;;;;;;;;5130710;27;20212;-59
2022/08/30 15:58:16;;;;;;;0.43;0.40;;;;;;;;;;5135453;27;20216;-58
2022/08/30 16:01:04;;;;;;;0.60;0.52;;;;;;;;;;5131320;27;20212;-59
2022/08/30 16:03:53;;;;;;;0.60;0.60;;;;;;;;;;5134927;27;20231;-59
2022/08/30 16:06:40;;;;;;;0.52;0.52;;;;;;;;;;5129584;27;20224;-59
2022/08/30 16:09:27;;;;;;;0.30;0.30;;;;;;;;;;5132494;27;20209;-59
2022/08/30 16:12:14;;;;;;;0.30;0.30;;;;;;;;;;5133548;27;20258;-59
2022/08/30 16:15:00;;;;;;;0.30;0.30;;;;;;;;;;5137757;27;20656;-59
2022/08/30 16:17:47;;;;;;;0.30;0.30;;;;;;;;;;5133209;27;20215;-59
2022/08/30 16:20:36;;;;;;;1.00;0.50;;;;;;;;;;5138439;27;20281;-59
2022/08/30 16:23:23;;;;;;;0.30;0.22;;;;;;;;;;5130787;27;20635;-59
2022/08/30 16:26:12;;;;;;;0.47;0.47;;;;;;;;;;5138141;27;20232;-59
2022/08/30 16:28:59;;;;;;;0.32;0.32;;;;;;;;;;5132893;27;20209;-59
2022/08/30 16:31:46;;;;;;;0.40;0.40;;;;;;;;;;5138575;27;20216;-59
2022/08/30 16:34:33;;;;;;;0.65;0.35;;;;;;;;;;5131746;27;20197;-59
2022/08/30 16:37:21;;;;;;;1.05;0.40;;;;;;;;;;5141226;27;20550;-59
2022/08/30 16:40:10;;;;;;;0.40;0.38;;;;;;;;;;5137475;27;20256;-59
2022/08/30 16:42:57;;;;;;;0.38;0.32;;;;;;;;;;5137996;27;20319;-59
2022/08/30 16:45:44;;;;;;;0.80;0.38;;;;;;;;;;5136501;27;20203;-59
2022/08/30 16:48:31;;;;;;;0.30;0.30;;;;;;;;;;5132697;27;20225;-59
2022/08/30 16:51:22;;;;;;;0.88;0.43;;;;;;;;;;5133754;27;20693;-59
2022/08/30 16:54:10;;;;;;;0.30;0.30;;;;;;;;;;5133418;27;20612;-59
2022/08/30 16:56:58;;;;;;;0.47;0.47;;;;;;;;;;5137867;27;20277;-59
2022/08/30 16:59:45;;;;;;;0.30;0.30;;;;;;;;;;5126251;27;20205;-59
2022/08/30 17:02:32;;;;;;;0.40;0.40;;;;;;;;;;5134708;27;20231;-59